sensor_id;sensor_type;location;lat;lon;timestamp;pressure;altitude;pressure_sealevel;temperature;humidity
76448;BME280;65284;51.040;13.722;2023-04-10T00:01:51;100878.41;;;6.21;74.52
76448;BME280;65284;51.040;13.722;2023-04-10T00:04:18;100867.06;;;6.08;75.03
76448;BME280;65284;51.040;13.722;2023-04-10T00:06:44;100877.59;;;6.08;75.01
76448;BME280;65284;51.040;13.722;2023-04-10T00:09:14;100870.88;;;6.04;75.34
76448;BME280;65284;51.040;13.722;2023-04-10T00:11:40;100863.91;;;6.03;75.03
76448;BME280;65284;51.040;13.722;2023-04-10T00:14:07;100862.97;;;6.04;75.37
76448;BME280;65284;51.040;13.722;2023-04-10T00:16:33;100863.69;;;6.06;75.20
76448;BME280;65284;51.040;13.722;2023-04-10T00:18:59;100861.63;;;5.98;75.30
76448;BME280;65284;51.040;13.722;2023-04-10T00:21:26;100858.25;;;5.96;75.54
76448;BME280;65284;51.040;13.722;2023-04-10T00:23:52;100862.66;;;5.96;75.55
76448;BME280;65284;51.040;13.722;2023-04-10T00:26:19;100858.53;;;5.91;75.59
76448;BME280;65284;51.040;13.722;2023-04-10T00:28:46;100852.97;;;5.83;75.14
76448;BME280;65284;51.040;13.722;2023-04-10T00:31:12;100858.47;;;5.80;75.70
76448;BME280;65284;51.040;13.722;2023-04-10T00:33:39;100853.28;;;5.79;75.71
76448;BME280;65284;51.040;13.722;2023-04-10T00:36:05;100849.94;;;5.64;76.30
76448;BME280;65284;51.040;13.722;2023-04-10T00:38:32;100848.38;;;5.74;76.19
76448;BME280;65284;51.040;13.722;2023-04-10T00:40:58;100844.78;;;5.75;76.15
76448;BME280;65284;51.040;13.722;2023-04-10T00:43:25;100844.38;;;5.68;76.09
76448;BME280;65284;51.040;13.722;2023-04-10T00:45:52;100848.59;;;5.71;75.67
76448;BME280;65284;51.040;13.722;2023-04-10T00:48:19;100847.09;;;5.67;75.79
76448;BME280;65284;51.040;13.722;2023-04-10T00:50:45;100846.88;;;5.70;75.78
76448;BME280;65284;51.040;13.722;2023-04-10T00:53:12;100842.25;;;5.61;76.17
76448;BME280;65284;51.040;13.722;2023-04-10T00:55:38;100843.00;;;5.63;76.18
76448;BME280;65284;51.040;13.722;2023-04-10T00:58:05;100832.69;;;5.60;76.33
76448;BME280;65284;51.040;13.722;2023-04-10T01:00:32;100842.88;;;5.64;76.37
76448;BME280;65284;51.040;13.722;2023-04-10T01:02:58;100837.44;;;5.55;76.06
76448;BME280;65284;51.040;13.722;2023-04-10T01:05:30;100845.34;;;5.55;76.27
76448;BME280;65284;51.040;13.722;2023-04-10T01:08:17;100843.75;;;5.52;76.28
76448;BME280;65284;51.040;13.722;2023-04-10T01:13:40;100843.34;;;5.45;76.13
76448;BME280;65284;51.040;13.722;2023-04-10T01:16:21;100852.94;;;5.34;76.73
76448;BME280;65284;51.040;13.722;2023-04-10T01:18:56;100858.53;;;5.29;77.19
76448;BME280;65284;51.040;13.722;2023-04-10T01:21:23;100854.97;;;5.30;76.81
76448;BME280;65284;51.040;13.722;2023-04-10T01:24:07;100852.31;;;5.30;76.85
76448;BME280;65284;51.040;13.722;2023-04-10T01:26:59;100850.53;;;5.31;76.77
76448;BME280;65284;51.040;13.722;2023-04-10T01:29:31;100857.69;;;5.29;76.91
76448;BME280;65284;51.040;13.722;2023-04-10T01:32:12;100862.31;;;5.25;76.80
76448;BME280;65284;51.040;13.722;2023-04-10T01:34:43;100860.22;;;5.30;76.59
76448;BME280;65284;51.040;13.722;2023-04-10T01:37:30;100860.72;;;5.35;76.26
76448;BME280;65284;51.040;13.722;2023-04-10T01:40:03;100862.66;;;5.33;76.07
76448;BME280;65284;51.040;13.722;2023-04-10T01:42:40;100867.06;;;5.20;76.53
76448;BME280;65284;51.040;13.722;2023-04-10T01:45:13;100855.81;;;5.18;76.53
76448;BME280;65284;51.040;13.722;2023-04-10T01:47:42;100861.66;;;5.09;76.75
76448;BME280;65284;51.040;13.722;2023-04-10T01:50:10;100848.22;;;5.00;76.86
76448;BME280;65284;51.040;13.722;2023-04-10T01:52:38;100853.03;;;4.94;77.05
76448;BME280;65284;51.040;13.722;2023-04-10T01:55:07;100848.38;;;4.85;76.93
76448;BME280;65284;51.040;13.722;2023-04-10T01:57:34;100849.63;;;4.79;77.64
76448;BME280;65284;51.040;13.722;2023-04-10T02:00:02;100846.38;;;4.75;77.01
76448;BME280;65284;51.040;13.722;2023-04-10T02:02:30;100843.88;;;4.74;76.88
76448;BME280;65284;51.040;13.722;2023-04-10T02:04:57;100837.09;;;4.70;77.18
76448;BME280;65284;51.040;13.722;2023-04-10T02:10:21;100842.16;;;4.73;77.30
76448;BME280;65284;51.040;13.722;2023-04-10T02:12:51;100841.84;;;4.65;77.30
76448;BME280;65284;51.040;13.722;2023-04-10T02:15:22;100837.94;;;4.57;77.88
76448;BME280;65284;51.040;13.722;2023-04-10T02:17:50;100849.75;;;4.65;77.47
76448;BME280;65284;51.040;13.722;2023-04-10T02:20:17;100839.66;;;4.71;77.61
76448;BME280;65284;51.040;13.722;2023-04-10T02:22:44;100837.03;;;4.84;76.98
76448;BME280;65284;51.040;13.722;2023-04-10T02:25:11;100833.41;;;4.60;77.72
76448;BME280;65284;51.040;13.722;2023-04-10T02:27:38;100836.38;;;4.68;77.66
76448;BME280;65284;51.040;13.722;2023-04-10T02:30:05;100839.31;;;4.76;77.27
76448;BME280;65284;51.040;13.722;2023-04-10T02:32:32;100829.41;;;4.67;77.52
76448;BME280;65284;51.040;13.722;2023-04-10T02:34:59;100833.22;;;4.63;77.68
76448;BME280;65284;51.040;13.722;2023-04-10T02:37:26;100821.44;;;4.55;77.75
76448;BME280;65284;51.040;13.722;2023-04-10T02:39:53;100826.69;;;4.55;78.07
76448;BME280;65284;51.040;13.722;2023-04-10T02:42:22;100824.22;;;4.52;78.03
76448;BME280;65284;51.040;13.722;2023-04-10T02:44:49;100824.22;;;4.52;78.25
76448;BME280;65284;51.040;13.722;2023-04-10T02:47:15;100830.44;;;4.51;78.47
76448;BME280;65284;51.040;13.722;2023-04-10T02:49:42;100825.94;;;4.53;78.14
76448;BME280;65284;51.040;13.722;2023-04-10T02:52:09;100828.34;;;4.56;77.94
76448;BME280;65284;51.040;13.722;2023-04-10T02:54:35;100826.28;;;4.62;77.87
76448;BME280;65284;51.040;13.722;2023-04-10T02:57:02;100831.28;;;4.52;78.09
76448;BME280;65284;51.040;13.722;2023-04-10T02:59:29;100826.84;;;4.52;78.16
76448;BME280;65284;51.040;13.722;2023-04-10T03:01:56;100819.38;;;4.46;77.96
76448;BME280;65284;51.040;13.722;2023-04-10T03:04:23;100823.16;;;4.42;77.69
76448;BME280;65284;51.040;13.722;2023-04-10T03:06:49;100828.97;;;4.47;77.83
76448;BME280;65284;51.040;13.722;2023-04-10T03:09:16;100822.41;;;4.40;77.86
76448;BME280;65284;51.040;13.722;2023-04-10T03:11:42;100821.16;;;4.33;78.07
76448;BME280;65284;51.040;13.722;2023-04-10T03:14:09;100831.25;;;4.39;78.35
76448;BME280;65284;51.040;13.722;2023-04-10T03:16:35;100829.38;;;4.41;77.86
76448;BME280;65284;51.040;13.722;2023-04-10T03:19:02;100839.31;;;4.63;77.44
76448;BME280;65284;51.040;13.722;2023-04-10T03:21:28;100837.22;;;4.55;77.32
76448;BME280;65284;51.040;13.722;2023-04-10T03:23:55;100833.28;;;4.48;77.69
76448;BME280;65284;51.040;13.722;2023-04-10T03:26:22;100842.25;;;4.59;77.38
76448;BME280;65284;51.040;13.722;2023-04-10T03:28:49;100831.28;;;4.52;77.66
76448;BME280;65284;51.040;13.722;2023-04-10T03:31:15;100830.44;;;4.51;77.56
76448;BME280;65284;51.040;13.722;2023-04-10T03:33:42;100831.75;;;4.59;77.48
76448;BME280;65284;51.040;13.722;2023-04-10T03:36:09;100832.25;;;4.64;77.07
76448;BME280;65284;51.040;13.722;2023-04-10T03:38:36;100834.88;;;4.64;77.06
76448;BME280;65284;51.040;13.722;2023-04-10T03:41:03;100841.44;;;4.71;77.11
76448;BME280;65284;51.040;13.722;2023-04-10T03:43:29;100833.63;;;4.69;76.98
76448;BME280;65284;51.040;13.722;2023-04-10T03:45:58;100835.34;;;4.70;76.79
76448;BME280;65284;51.040;13.722;2023-04-10T03:48:25;100839.22;;;4.65;77.29
76448;BME280;65284;51.040;13.722;2023-04-10T03:50:53;100834.88;;;4.64;77.02
76448;BME280;65284;51.040;13.722;2023-04-10T03:53:20;100837.72;;;4.61;77.59
76448;BME280;65284;51.040;13.722;2023-04-10T03:55:47;100838.47;;;4.63;77.56
76448;BME280;65284;51.040;13.722;2023-04-10T03:58:13;100837.00;;;4.59;78.08
76448;BME280;65284;51.040;13.722;2023-04-10T04:00:39;100843.53;;;4.66;77.69
76448;BME280;65284;51.040;13.722;2023-04-10T04:03:06;100838.69;;;4.60;78.20
76448;BME280;65284;51.040;13.722;2023-04-10T04:05:33;100842.25;;;4.59;78.30
76448;BME280;65284;51.040;13.722;2023-04-10T04:08:00;100842.97;;;4.61;78.21
76448;BME280;65284;51.040;13.722;2023-04-10T04:10:26;100848.66;;;4.54;78.74
76448;BME280;65284;51.040;13.722;2023-04-10T04:12:53;100851.09;;;4.57;78.61
76448;BME280;65284;51.040;13.722;2023-04-10T04:15:19;100849.19;;;4.60;78.76
76448;BME280;65284;51.040;13.722;2023-04-10T04:17:49;100853.38;;;4.49;78.93
76448;BME280;65284;51.040;13.722;2023-04-10T04:20:16;100858.03;;;4.59;78.43
76448;BME280;65284;51.040;13.722;2023-04-10T04:22:42;100865.19;;;4.56;78.58
76448;BME280;65284;51.040;13.722;2023-04-10T04:25:09;100864.72;;;4.77;79.53
76448;BME280;65284;51.040;13.722;2023-04-10T04:27:36;100872.19;;;4.83;78.76
76448;BME280;65284;51.040;13.722;2023-04-10T04:30:03;100862.81;;;4.79;78.07
76448;BME280;65284;51.040;13.722;2023-04-10T04:32:31;100863.97;;;4.75;77.11
76448;BME280;65284;51.040;13.722;2023-04-10T04:34:57;100860.97;;;4.54;77.52
76448;BME280;65284;51.040;13.722;2023-04-10T04:37:24;100864.03;;;4.61;77.45
76448;BME280;65284;51.040;13.722;2023-04-10T04:39:50;100862.44;;;4.58;77.63
76448;BME280;65284;51.040;13.722;2023-04-10T04:42:16;100856.34;;;4.57;77.57
76448;BME280;65284;51.040;13.722;2023-04-10T04:44:43;100864.38;;;4.69;77.40
76448;BME280;65284;51.040;13.722;2023-04-10T04:47:10;100872.97;;;4.58;77.62
76448;BME280;65284;51.040;13.722;2023-04-10T04:49:36;100868.94;;;4.52;78.00
76448;BME280;65284;51.040;13.722;2023-04-10T04:52:03;100871.84;;;4.62;77.78
76448;BME280;65284;51.040;13.722;2023-04-10T04:54:29;100861.41;;;4.61;78.08
76448;BME280;65284;51.040;13.722;2023-04-10T04:56:56;100863.31;;;4.59;77.89
76448;BME280;65284;51.040;13.722;2023-04-10T04:59:23;100863.31;;;4.59;77.91
76448;BME280;65284;51.040;13.722;2023-04-10T05:01:49;100866.88;;;4.57;77.93
76448;BME280;65284;51.040;13.722;2023-04-10T05:04:16;100864.78;;;4.63;78.21
76448;BME280;65284;51.040;13.722;2023-04-10T05:06:43;100869.94;;;4.64;78.19
76448;BME280;65284;51.040;13.722;2023-04-10T05:09:09;100864.78;;;4.63;78.48
76448;BME280;65284;51.040;13.722;2023-04-10T05:11:36;100869.84;;;4.66;78.17
76448;BME280;65284;51.040;13.722;2023-04-10T05:14:02;100867.69;;;4.58;78.67
76448;BME280;65284;51.040;13.722;2023-04-10T05:16:29;100873.44;;;4.65;78.59
76448;BME280;65284;51.040;13.722;2023-04-10T05:18:55;100865.41;;;4.66;78.40
76448;BME280;65284;51.040;13.722;2023-04-10T05:21:22;100871.31;;;4.70;78.05
76448;BME280;65284;51.040;13.722;2023-04-10T05:23:49;100873.22;;;4.68;78.51
76448;BME280;65284;51.040;13.722;2023-04-10T05:26:15;100869.44;;;4.72;78.36
76448;BME280;65284;51.040;13.722;2023-04-10T05:28:42;100874.50;;;4.75;78.54
76448;BME280;65284;51.040;13.722;2023-04-10T05:31:08;100885.22;;;4.72;78.66
76448;BME280;65284;51.040;13.722;2023-04-10T05:33:35;100876.72;;;4.81;78.47
76448;BME280;65284;51.040;13.722;2023-04-10T05:36:01;100886.28;;;4.82;78.59
76448;BME280;65284;51.040;13.722;2023-04-10T05:38:28;100880.63;;;5.01;77.68
76448;BME280;65284;51.040;13.722;2023-04-10T05:40:54;100882.84;;;4.94;78.00
76448;BME280;65284;51.040;13.722;2023-04-10T05:43:21;100882.94;;;4.93;78.19
76448;BME280;65284;51.040;13.722;2023-04-10T05:45:47;100887.38;;;4.92;78.49
76448;BME280;65284;51.040;13.722;2023-04-10T05:48:14;100877.69;;;4.93;78.47
76448;BME280;65284;51.040;13.722;2023-04-10T05:50:40;100884.53;;;4.95;78.21
76448;BME280;65284;51.040;13.722;2023-04-10T05:53:12;100886.53;;;5.05;78.27
76448;BME280;65284;51.040;13.722;2023-04-10T05:55:39;100875.72;;;5.09;78.52
76448;BME280;65284;51.040;13.722;2023-04-10T05:58:06;100871.28;;;5.10;78.87
76448;BME280;65284;51.040;13.722;2023-04-10T06:00:32;100868.34;;;5.27;78.05
76448;BME280;65284;51.040;13.722;2023-04-10T06:02:59;100873.59;;;5.40;77.46
76448;BME280;65284;51.040;13.722;2023-04-10T06:05:26;100868.22;;;5.41;77.48
76448;BME280;65284;51.040;13.722;2023-04-10T06:07:52;100876.00;;;5.56;76.97
76448;BME280;65284;51.040;13.722;2023-04-10T06:10:22;100872.53;;;5.68;76.63
76448;BME280;65284;51.040;13.722;2023-04-10T06:12:48;100880.22;;;5.71;76.60
76448;BME280;65284;51.040;13.722;2023-04-10T06:15:15;100885.22;;;6.00;76.21
76448;BME280;65284;51.040;13.722;2023-04-10T06:17:42;100870.03;;;5.90;76.42
76448;BME280;65284;51.040;13.722;2023-04-10T06:20:09;100877.31;;;5.87;76.80
76448;BME280;65284;51.040;13.722;2023-04-10T06:22:36;100869.84;;;5.93;76.36
76448;BME280;65284;51.040;13.722;2023-04-10T06:25:02;100870.59;;;5.96;76.40
76448;BME280;65284;51.040;13.722;2023-04-10T06:27:30;100871.53;;;5.95;76.33
76448;BME280;65284;51.040;13.722;2023-04-10T06:29:57;100866.66;;;6.01;76.23
76448;BME280;65284;51.040;13.722;2023-04-10T06:32:23;100864.50;;;6.19;75.49
76448;BME280;65284;51.040;13.722;2023-04-10T06:34:50;100873.47;;;6.17;75.61
76448;BME280;65284;51.040;13.722;2023-04-10T06:37:17;100864.28;;;6.22;75.74
76448;BME280;65284;51.040;13.722;2023-04-10T06:39:43;100866.97;;;6.33;74.90
76448;BME280;65284;51.040;13.722;2023-04-10T06:42:10;100864.44;;;6.32;75.23
76448;BME280;65284;51.040;13.722;2023-04-10T06:44:36;100865.50;;;6.29;75.42
76448;BME280;65284;51.040;13.722;2023-04-10T06:47:03;100864.09;;;6.36;75.46
76448;BME280;65284;51.040;13.722;2023-04-10T06:49:32;100862.22;;;6.50;74.93
76448;BME280;65284;51.040;13.722;2023-04-10T06:51:58;100869.22;;;6.51;75.19
76448;BME280;65284;51.040;13.722;2023-04-10T06:54:24;100866.59;;;6.62;74.93
76448;BME280;65284;51.040;13.722;2023-04-10T06:56:51;100865.44;;;6.66;74.38
76448;BME280;65284;51.040;13.722;2023-04-10T06:59:18;100865.44;;;6.66;74.31
76448;BME280;65284;51.040;13.722;2023-04-10T07:01:44;100853.66;;;6.70;74.19
76448;BME280;65284;51.040;13.722;2023-04-10T07:04:10;100859.97;;;6.80;73.86
76448;BME280;65284;51.040;13.722;2023-04-10T07:06:37;100862.13;;;6.87;74.72
76448;BME280;65284;51.040;13.722;2023-04-10T07:09:03;100847.03;;;7.00;73.86
76448;BME280;65284;51.040;13.722;2023-04-10T07:11:30;100850.19;;;7.16;74.56
76448;BME280;65284;51.040;13.722;2023-04-10T07:13:57;100850.44;;;7.13;73.73
76448;BME280;65284;51.040;13.722;2023-04-10T07:16:24;100846.34;;;7.20;73.67
76448;BME280;65284;51.040;13.722;2023-04-10T07:18:51;100840.09;;;7.21;73.66
76448;BME280;65284;51.040;13.722;2023-04-10T07:21:18;100846.09;;;7.23;73.37
76448;BME280;65284;51.040;13.722;2023-04-10T07:23:44;100849.25;;;7.28;73.55
76448;BME280;65284;51.040;13.722;2023-04-10T07:26:10;100844.66;;;7.42;72.91
76448;BME280;65284;51.040;13.722;2023-04-10T07:28:37;100847.78;;;7.47;73.12
76448;BME280;65284;51.040;13.722;2023-04-10T07:31:04;100842.03;;;7.53;72.77
76448;BME280;65284;51.040;13.722;2023-04-10T07:33:31;100833.50;;;7.61;72.67
76448;BME280;65284;51.040;13.722;2023-04-10T07:35:57;100832.88;;;7.68;72.51
76448;BME280;65284;51.040;13.722;2023-04-10T07:38:24;100827.00;;;7.76;71.98
76448;BME280;65284;51.040;13.722;2023-04-10T07:40:55;100832.38;;;7.86;71.43
76448;BME280;65284;51.040;13.722;2023-04-10T07:43:22;100838.16;;;7.91;71.56
76448;BME280;65284;51.040;13.722;2023-04-10T07:45:49;100823.44;;;8.09;71.28
76448;BME280;65284;51.040;13.722;2023-04-10T07:48:15;100825.34;;;8.07;71.66
76448;BME280;65284;51.040;13.722;2023-04-10T07:50:42;100822.66;;;8.18;71.00
76448;BME280;65284;51.040;13.722;2023-04-10T07:53:08;100822.41;;;8.21;70.70
76448;BME280;65284;51.040;13.722;2023-04-10T07:55:39;100826.25;;;8.29;70.14
76448;BME280;65284;51.040;13.722;2023-04-10T07:58:05;100824.06;;;8.34;70.63
76448;BME280;65284;51.040;13.722;2023-04-10T08:00:32;100823.72;;;8.38;70.13
76448;BME280;65284;51.040;13.722;2023-04-10T08:02:59;100817.09;;;8.44;70.26
76448;BME280;65284;51.040;13.722;2023-04-10T08:05:26;100819.53;;;8.57;69.82
76448;BME280;65284;51.040;13.722;2023-04-10T08:07:53;100814.78;;;8.72;69.32
76448;BME280;65284;51.040;13.722;2023-04-10T08:10:20;100816.22;;;8.76;69.33
76448;BME280;65284;51.040;13.722;2023-04-10T08:12:46;100813.94;;;8.92;69.41
76448;BME280;65284;51.040;13.722;2023-04-10T08:15:13;100807.47;;;9.06;68.41
76448;BME280;65284;51.040;13.722;2023-04-10T08:17:39;100815.16;;;9.09;68.08
76448;BME280;65284;51.040;13.722;2023-04-10T08:20:06;100815.59;;;9.14;67.81
76448;BME280;65284;51.040;13.722;2023-04-10T08:22:33;100801.94;;;9.19;67.92
76448;BME280;65284;51.040;13.722;2023-04-10T08:24:59;100802.84;;;9.29;67.21
76448;BME280;65284;51.040;13.722;2023-04-10T08:27:25;100806.75;;;9.34;66.74
76448;BME280;65284;51.040;13.722;2023-04-10T08:29:53;100806.22;;;9.41;66.60
76448;BME280;65284;51.040;13.722;2023-04-10T08:32:19;100808.22;;;9.58;66.35
76448;BME280;65284;51.040;13.722;2023-04-10T08:34:47;100802.16;;;9.77;65.60
76448;BME280;65284;51.040;13.722;2023-04-10T08:37:14;100804.38;;;9.72;65.82
76448;BME280;65284;51.040;13.722;2023-04-10T08:39:41;100791.00;;;9.83;66.89
76448;BME280;65284;51.040;13.722;2023-04-10T08:42:07;100787.34;;;9.84;66.76
76448;BME280;65284;51.040;13.722;2023-04-10T08:44:34;100785.41;;;9.86;66.88
76448;BME280;65284;51.040;13.722;2023-04-10T08:47:02;100788.34;;;10.02;67.02
76448;BME280;65284;51.040;13.722;2023-04-10T08:49:36;100785.69;;;10.02;66.71
76448;BME280;65284;51.040;13.722;2023-04-10T08:52:13;100788.22;;;10.14;66.30
76448;BME280;65284;51.040;13.722;2023-04-10T08:54:47;100779.59;;;10.12;66.49
76448;BME280;65284;51.040;13.722;2023-04-10T08:57:16;100781.25;;;10.13;66.16
76448;BME280;65284;51.040;13.722;2023-04-10T08:59:46;100775.94;;;10.13;66.22
76448;BME280;65284;51.040;13.722;2023-04-10T09:02:13;100775.66;;;10.16;66.16
76448;BME280;65284;51.040;13.722;2023-04-10T09:04:46;100777.91;;;10.20;66.09
76448;BME280;65284;51.040;13.722;2023-04-10T09:07:13;100773.16;;;10.24;66.13
76448;BME280;65284;51.040;13.722;2023-04-10T09:09:40;100762.53;;;10.43;65.32
76448;BME280;65284;51.040;13.722;2023-04-10T09:12:07;100763.38;;;10.54;65.60
76448;BME280;65284;51.040;13.722;2023-04-10T09:14:34;100756.09;;;10.56;65.30
76448;BME280;65284;51.040;13.722;2023-04-10T09:17:20;100756.09;;;10.56;64.69
76448;BME280;65284;51.040;13.722;2023-04-10T09:19:51;100757.91;;;10.65;64.04
76448;BME280;65284;51.040;13.722;2023-04-10T09:22:28;100753.56;;;10.64;63.96
76448;BME280;65284;51.040;13.722;2023-04-10T09:24:55;100753.00;;;10.70;63.76
76448;BME280;65284;51.040;13.722;2023-04-10T09:27:29;100749.47;;;10.79;63.78
76448;BME280;65284;51.040;13.722;2023-04-10T09:29:57;100753.78;;;10.90;63.23
76448;BME280;65284;51.040;13.722;2023-04-10T09:32:44;100744.50;;;11.04;62.78
76448;BME280;65284;51.040;13.722;2023-04-10T09:35:14;100743.00;;;11.29;60.87
76448;BME280;65284;51.040;13.722;2023-04-10T09:37:43;100741.69;;;11.43;60.56
76448;BME280;65284;51.040;13.722;2023-04-10T09:40:24;100740.97;;;11.41;61.14
76448;BME280;65284;51.040;13.722;2023-04-10T09:42:51;100739.59;;;11.36;61.18
76448;BME280;65284;51.040;13.722;2023-04-10T09:45:18;100737.72;;;11.47;59.93
76448;BME280;65284;51.040;13.722;2023-04-10T09:48:05;100722.16;;;11.52;59.01
76448;BME280;65284;51.040;13.722;2023-04-10T09:50:36;100717.13;;;11.49;59.44
76448;BME280;65284;51.040;13.722;2023-04-10T09:53:17;100714.06;;;11.44;60.15
76448;BME280;65284;51.040;13.722;2023-04-10T09:55:48;100713.06;;;11.72;58.82
76448;BME280;65284;51.040;13.722;2023-04-10T09:58:15;100712.16;;;11.81;59.93
76448;BME280;65284;51.040;13.722;2023-04-10T10:00:47;100702.19;;;11.83;59.58
76448;BME280;65284;51.040;13.722;2023-04-10T10:03:16;100705.13;;;11.90;58.83
76448;BME280;65284;51.040;13.722;2023-04-10T10:05:45;100696.44;;;11.88;57.45
76448;BME280;65284;51.040;13.722;2023-04-10T10:08:12;100696.28;;;12.07;57.25
76448;BME280;65284;51.040;13.722;2023-04-10T10:10:52;100688.50;;;12.14;57.48
76448;BME280;65284;51.040;13.722;2023-04-10T10:16:18;100682.66;;;12.11;58.20
76448;BME280;65284;51.040;13.722;2023-04-10T10:21:51;100656.31;;;12.51;57.32
76448;BME280;65284;51.040;13.722;2023-04-10T10:24:19;100657.88;;;12.36;58.33
76448;BME280;65284;51.040;13.722;2023-04-10T10:26:48;100659.31;;;12.48;57.82
76448;BME280;65284;51.040;13.722;2023-04-10T10:29:15;100663.31;;;12.52;58.12
76448;BME280;65284;51.040;13.722;2023-04-10T10:31:44;100658.94;;;12.43;58.21
76448;BME280;65284;51.040;13.722;2023-04-10T10:34:14;100645.03;;;12.58;57.58
76448;BME280;65284;51.040;13.722;2023-04-10T10:36:41;100645.03;;;12.58;58.04
76448;BME280;65284;51.040;13.722;2023-04-10T10:41:53;100641.22;;;12.68;57.12
76448;BME280;65284;51.040;13.722;2023-04-10T10:44:46;100636.59;;;12.70;57.19
76448;BME280;65284;51.040;13.722;2023-04-10T10:47:19;100639.13;;;12.80;56.87
76448;BME280;65284;51.040;13.722;2023-04-10T10:49:59;100634.72;;;12.97;55.28
76448;BME280;65284;51.040;13.722;2023-04-10T10:58:07;100613.22;;;13.07;55.02
76448;BME280;65284;51.040;13.722;2023-04-10T11:03:26;100601.09;;;13.12;53.94
76448;BME280;65284;51.040;13.722;2023-04-10T11:06:06;100602.50;;;13.41;52.93
76448;BME280;65284;51.040;13.722;2023-04-10T11:08:48;100598.53;;;13.37;52.76
76448;BME280;65284;51.040;13.722;2023-04-10T11:19:04;100570.31;;;13.42;53.03
76448;BME280;65284;51.040;13.722;2023-04-10T11:24:25;100573.16;;;13.41;51.18
76448;BME280;65284;51.040;13.722;2023-04-10T11:26:51;100551.50;;;13.44;51.75
76448;BME280;65284;51.040;13.722;2023-04-10T11:31:58;100558.16;;;13.48;51.81
76448;BME280;65284;51.040;13.722;2023-04-10T11:34:25;100561.47;;;13.34;52.14
76448;BME280;65284;51.040;13.722;2023-04-10T11:36:53;100555.16;;;13.43;51.81
76448;BME280;65284;51.040;13.722;2023-04-10T11:39:19;100543.47;;;13.44;51.85
76448;BME280;65284;51.040;13.722;2023-04-10T11:41:51;100538.47;;;13.57;51.35
76448;BME280;65284;51.040;13.722;2023-04-10T11:44:26;100534.81;;;13.50;51.08
76448;BME280;65284;51.040;13.722;2023-04-10T11:46:53;100526.28;;;13.63;50.65
76448;BME280;65284;51.040;13.722;2023-04-10T11:49:21;100521.97;;;13.78;49.57
76448;BME280;65284;51.040;13.722;2023-04-10T11:51:49;100520.75;;;13.89;48.69
76448;BME280;65284;51.040;13.722;2023-04-10T11:54:18;100524.44;;;13.80;49.24
76448;BME280;65284;51.040;13.722;2023-04-10T11:57:06;100511.56;;;13.83;50.49
76448;BME280;65284;51.040;13.722;2023-04-10T11:59:37;100504.38;;;14.00;48.69
76448;BME280;65284;51.040;13.722;2023-04-10T12:02:09;100506.69;;;14.03;47.25
76448;BME280;65284;51.040;13.722;2023-04-10T12:04:36;100511.38;;;14.01;47.52
76448;BME280;65284;51.040;13.722;2023-04-10T12:07:03;100494.84;;;14.14;47.04
76448;BME280;65284;51.040;13.722;2023-04-10T12:09:30;100502.38;;;14.02;46.95
76448;BME280;65284;51.040;13.722;2023-04-10T12:11:59;100499.03;;;14.08;46.19
76448;BME280;65284;51.040;13.722;2023-04-10T12:14:33;100497.03;;;14.02;46.53
76448;BME280;65284;51.040;13.722;2023-04-10T12:17:01;100496.19;;;14.02;46.70
76448;BME280;65284;51.040;13.722;2023-04-10T12:19:28;100493.34;;;14.03;47.21
76448;BME280;65284;51.040;13.722;2023-04-10T12:21:56;100492.00;;;14.07;46.96
76448;BME280;65284;51.040;13.722;2023-04-10T12:27:23;100492.63;;;14.26;45.40
76448;BME280;65284;51.040;13.722;2023-04-10T12:29:52;100474.03;;;14.32;45.50
76448;BME280;65284;51.040;13.722;2023-04-10T12:32:19;100476.38;;;14.36;45.46
76448;BME280;65284;51.040;13.722;2023-04-10T12:34:56;100480.97;;;14.50;44.89
76448;BME280;65284;51.040;13.722;2023-04-10T12:37:24;100476.16;;;14.45;44.97
76448;BME280;65284;51.040;13.722;2023-04-10T12:40:11;100481.66;;;14.52;45.19
76448;BME280;65284;51.040;13.722;2023-04-10T12:42:41;100473.31;;;14.47;45.03
76448;BME280;65284;51.040;13.722;2023-04-10T12:45:09;100473.47;;;14.53;44.38
76448;BME280;65284;51.040;13.722;2023-04-10T12:47:49;100469.44;;;14.57;43.58
76448;BME280;65284;51.040;13.722;2023-04-10T12:50:19;100465.69;;;14.67;40.19
76448;BME280;65284;51.040;13.722;2023-04-10T12:53:03;100464.22;;;14.64;41.52
76448;BME280;65284;51.040;13.722;2023-04-10T12:55:31;100467.78;;;14.56;41.40
76448;BME280;65284;51.040;13.722;2023-04-10T12:58:14;100466.38;;;14.69;41.76
76448;BME280;65284;51.040;13.722;2023-04-10T13:00:42;100456.66;;;14.76;41.13
76448;BME280;65284;51.040;13.722;2023-04-10T13:03:09;100445.03;;;14.84;42.00
76448;BME280;65284;51.040;13.722;2023-04-10T13:05:36;100448.53;;;14.84;40.54
76448;BME280;65284;51.040;13.722;2023-04-10T13:08:02;100448.19;;;14.87;40.45
76448;BME280;65284;51.040;13.722;2023-04-10T13:10:28;100448.84;;;14.89;39.91
76448;BME280;65284;51.040;13.722;2023-04-10T13:12:55;100438.81;;;14.91;39.20
76448;BME280;65284;51.040;13.722;2023-04-10T13:15:22;100435.13;;;14.92;39.41
76448;BME280;65284;51.040;13.722;2023-04-10T13:17:49;100439.09;;;14.96;40.27
76448;BME280;65284;51.040;13.722;2023-04-10T13:20:16;100444.16;;;14.91;41.10
76448;BME280;65284;51.040;13.722;2023-04-10T13:22:42;100441.41;;;14.99;40.80
76448;BME280;65284;51.040;13.722;2023-04-10T13:25:09;100432.75;;;14.97;41.24
76448;BME280;65284;51.040;13.722;2023-04-10T13:27:35;100431.13;;;15.11;39.50
76448;BME280;65284;51.040;13.722;2023-04-10T13:30:01;100421.19;;;15.20;39.96
76448;BME280;65284;51.040;13.722;2023-04-10T13:32:28;100410.25;;;15.30;40.57
76448;BME280;65284;51.040;13.722;2023-04-10T13:34:54;100407.66;;;15.36;41.27